Time;durP1;ratioP1;P1;durP2;ratioP2;P2;SDS_P1;SDS_P2;PMS_P1;PMS_P2;Temp;Humidity;BMP_temperature;BMP_pressure;BME280_temperature;BME280_humidity;BME280_pressure;Samples;Min_cycle;Max_cycle;Signal;HPM_P1;HPM_P2
2021/11/14 00:01:07;;;;;;;18.80;11.10;;;4.50;86.80;;;;;;5045139;28;20263;-77
2021/11/14 00:03:34;;;;;;;23.47;12.27;;;4.40;87.10;;;;;;5046508;28;20184;-77
2021/11/14 00:06:02;;;;;;;27.53;12.63;;;4.40;87.30;;;;;;5041475;28;20183;-77
2021/11/14 00:08:29;;;;;;;22.10;12.03;;;4.40;87.30;;;;;;5046037;28;20306;-77
2021/11/14 00:11:03;;;;;;;21.37;10.50;;;4.40;87.30;;;;;;5044223;28;20566;-77
2021/11/14 00:13:29;;;;;;;17.27;9.97;;;4.30;87.30;;;;;;5040581;28;20302;-78
2021/11/14 00:15:55;;;;;;;17.50;9.83;;;4.30;87.40;;;;;;5042841;28;20783;-77
2021/11/14 00:18:21;;;;;;;21.70;9.27;;;4.30;87.30;;;;;;5044353;28;20183;-76
2021/11/14 00:20:47;;;;;;;20.40;9.80;;;4.20;87.20;;;;;;5044132;28;20308;-77
2021/11/14 00:23:14;;;;;;;20.10;10.07;;;4.20;87.10;;;;;;5045815;28;20187;-77
2021/11/14 00:25:40;;;;;;;12.97;8.23;;;4.10;87.20;;;;;;5047692;28;20206;-77
2021/11/14 00:28:09;;;;;;;23.27;10.97;;;4.10;87.50;;;;;;5046632;28;20184;-77
2021/11/14 00:30:35;;;;;;;23.27;11.37;;;4.10;87.10;;;;;;5046307;28;20663;-77
2021/11/14 00:33:02;;;;;;;20.50;9.60;;;4.10;87.00;;;;;;5044980;28;20226;-77
2021/11/14 00:35:28;;;;;;;19.53;10.23;;;4.10;87.00;;;;;;5045507;28;20329;-77
2021/11/14 00:37:54;;;;;;;15.93;8.30;;;;;;;;;;5046984;28;20191;-78
2021/11/14 00:40:26;;;;;;;12.33;8.33;;;4.00;87.20;;;;;;5047589;28;20285;-78
2021/11/14 00:42:53;;;;;;;17.03;7.70;;;4.10;87.70;;;;;;5044840;28;20179;-78
2021/11/14 00:45:19;;;;;;;13.03;7.33;;;4.10;87.80;;;;;;5047083;28;20616;-78
2021/11/14 00:47:45;;;;;;;13.33;7.03;;;4.00;88.10;;;;;;5049055;28;20183;-78
2021/11/14 00:50:12;;;;;;;9.97;7.00;;;4.00;88.40;;;;;;5045131;28;20176;-77
2021/11/14 00:52:40;;;;;;;12.63;7.23;;;4.00;88.40;;;;;;5045876;28;20540;-77
2021/11/14 00:55:08;;;;;;;7.53;5.47;;;4.00;88.70;;;;;;5044748;28;20613;-78
2021/11/14 00:57:34;;;;;;;7.93;5.67;;;4.00;88.60;;;;;;5046056;28;20203;-77
2021/11/14 00:59:59;;;;;;;9.97;7.77;;;4.00;88.40;;;;;;5044930;28;20583;-77
2021/11/14 01:02:25;;;;;;;13.43;7.90;;;4.00;88.50;;;;;;5045013;28;20242;-77
2021/11/14 01:04:51;;;;;;;9.70;6.77;;;3.90;88.50;;;;;;5046326;28;20557;-77
2021/11/14 01:07:17;;;;;;;16.33;9.03;;;;;;;;;;5044510;28;20202;-78
2021/11/14 01:09:43;;;;;;;15.20;7.73;;;;;;;;;;5044459;28;20186;-78
2021/11/14 01:12:09;;;;;;;12.97;9.10;;;;;;;;;;5042212;28;20183;-78
2021/11/14 01:14:36;;;;;;;13.80;9.30;;;3.70;89.20;;;;;;5040782;28;20196;-76
2021/11/14 01:17:03;;;;;;;17.33;9.73;;;3.60;89.30;;;;;;5046017;28;20176;-77
2021/11/14 01:19:29;;;;;;;11.60;8.27;;;3.60;89.30;;;;;;5044937;28;20184;-77
2021/11/14 01:21:55;;;;;;;16.47;9.07;;;3.60;89.60;;;;;;5045159;28;20195;-77
2021/11/14 01:24:21;;;;;;;17.00;9.87;;;3.60;89.60;;;;;;5045524;28;20190;-77
2021/11/14 01:26:47;;;;;;;12.33;7.90;;;3.50;89.40;;;;;;5045700;28;20262;-77
2021/11/14 01:29:12;;;;;;;11.43;7.63;;;3.50;89.40;;;;;;5047055;28;20628;-77
2021/11/14 01:31:38;;;;;;;17.83;8.73;;;3.50;89.20;;;;;;5045252;28;20187;-77
2021/11/14 01:34:04;;;;;;;17.63;9.53;;;3.50;89.20;;;;;;5043357;28;20220;-77
2021/11/14 01:36:33;;;;;;;17.40;8.50;;;3.40;89.40;;;;;;5044642;28;20580;-77
2021/11/14 01:39:01;;;;;;;17.57;9.07;;;3.40;89.70;;;;;;5044839;28;20572;-77
2021/11/14 01:41:27;;;;;;;15.93;9.50;;;3.40;89.80;;;;;;5046232;28;20186;-78
2021/11/14 01:43:54;;;;;;;12.23;8.37;;;3.40;90.00;;;;;;5044076;28;20691;-77
2021/11/14 01:46:20;;;;;;;12.70;8.00;;;3.40;90.20;;;;;;5043111;28;20687;-77
2021/11/14 01:48:48;;;;;;;13.73;8.20;;;3.40;90.20;;;;;;5043220;28;20180;-77
2021/11/14 01:51:14;;;;;;;15.23;8.27;;;3.40;90.00;;;;;;5044312;28;20270;-77
2021/11/14 01:53:40;;;;;;;12.17;6.97;;;3.40;89.80;;;;;;5044219;28;20911;-77
2021/11/14 01:56:10;;;;;;;14.90;9.10;;;3.40;89.50;;;;;;5045794;28;20179;-77
2021/11/14 01:58:36;;;;;;;18.23;8.93;;;3.40;89.40;;;;;;5045920;28;20184;-78
2021/11/14 02:01:10;;;;;;;16.07;8.70;;;3.40;89.40;;;;;;5045423;28;20190;-76
2021/11/14 02:03:37;;;;;;;12.70;8.07;;;3.40;89.60;;;;;;5041749;28;20183;-78
2021/11/14 02:06:06;;;;;;;13.70;8.50;;;3.40;89.50;;;;;;5044129;28;20200;-77
2021/11/14 02:08:33;;;;;;;11.17;8.10;;;3.40;89.40;;;;;;5042737;28;20759;-77
2021/11/14 02:10:59;;;;;;;12.77;8.07;;;3.40;89.70;;;;;;5045561;28;20568;-78
2021/11/14 02:13:26;;;;;;;13.17;8.20;;;3.40;89.80;;;;;;5044440;28;20352;-76
2021/11/14 02:15:52;;;;;;;12.30;9.40;;;3.30;89.70;;;;;;5044927;28;20610;-76
2021/11/14 02:18:18;;;;;;;15.83;9.53;;;3.30;90.00;;;;;;5045667;28;20564;-76
2021/11/14 02:20:46;;;;;;;19.57;10.03;;;3.30;90.60;;;;;;5045264;28;20180;-77
2021/11/14 02:23:16;;;;;;;16.77;8.53;;;3.20;90.80;;;;;;5043378;28;20209;-77
2021/11/14 02:25:42;;;;;;;14.50;9.67;;;3.20;91.00;;;;;;5046200;28;20269;-77
2021/11/14 02:28:08;;;;;;;18.97;8.23;;;3.30;91.40;;;;;;5047019;28;20180;-77
2021/11/14 02:30:36;;;;;;;20.90;9.37;;;3.30;91.40;;;;;;5043885;28;20193;-77
2021/11/14 02:33:03;;;;;;;11.23;7.80;;;3.30;91.30;;;;;;5043818;28;20223;-77
2021/11/14 02:35:29;;;;;;;18.20;7.53;;;3.30;91.20;;;;;;5044586;28;20233;-77
2021/11/14 02:37:55;;;;;;;13.83;8.20;;;3.30;90.90;;;;;;5046167;28;20284;-77
2021/11/14 02:40:21;;;;;;;8.93;6.47;;;3.30;90.60;;;;;;5045552;28;20980;-77
2021/11/14 02:42:48;;;;;;;13.57;7.83;;;3.30;90.40;;;;;;5044980;28;20932;-76
2021/11/14 02:45:19;;;;;;;13.93;8.37;;;3.30;90.20;;;;;;5044724;28;20191;-77
2021/11/14 02:47:46;;;;;;;12.00;7.00;;;3.30;90.20;;;;;;5043793;28;20272;-77
2021/11/14 02:50:12;;;;;;;10.30;7.77;;;3.30;90.20;;;;;;5047305;28;20180;-77
2021/11/14 02:52:38;;;;;;;17.63;7.23;;;3.30;90.40;;;;;;5043083;28;20212;-77
2021/11/14 02:55:07;;;;;;;14.00;8.80;;;3.20;90.60;;;;;;5043155;28;20177;-76
2021/11/14 02:57:33;;;;;;;13.87;7.53;;;3.20;90.50;;;;;;5044324;28;20467;-76
2021/11/14 02:59:59;;;;;;;10.83;8.27;;;3.20;90.60;;;;;;5045975;28;20187;-76
2021/11/14 03:02:25;;;;;;;15.60;8.77;;;3.20;90.60;;;;;;5043882;28;20183;-77
2021/11/14 03:04:51;;;;;;;12.07;8.17;;;3.10;90.70;;;;;;5045175;28;20184;-77
2021/11/14 03:07:17;;;;;;;11.17;6.87;;;3.10;91.10;;;;;;5045752;28;20281;-77
2021/11/14 03:09:43;;;;;;;13.07;7.93;;;3.10;90.90;;;;;;5045419;28;20172;-76
2021/11/14 03:12:09;;;;;;;9.23;7.03;;;3.10;90.90;;;;;;5041231;28;20238;-76
2021/11/14 03:14:35;;;;;;;22.07;6.97;;;3.10;90.80;;;;;;5044661;28;20956;-77
2021/11/14 03:17:01;;;;;;;13.67;6.80;;;3.00;90.80;;;;;;5043750;28;20192;-75
2021/11/14 03:19:27;;;;;;;10.73;7.47;;;3.00;90.90;;;;;;5046671;28;20188;-77
2021/11/14 03:21:53;;;;;;;13.13;7.03;;;3.00;90.90;;;;;;5046176;28;20254;-76
2021/11/14 03:24:19;;;;;;;13.97;7.67;;;3.00;90.90;;;;;;5049247;28;20184;-76
2021/11/14 03:26:45;;;;;;;10.60;6.93;;;2.90;90.90;;;;;;5048186;28;20194;-76
2021/11/14 03:29:11;;;;;;;14.90;6.63;;;2.90;91.10;;;;;;5046014;28;20184;-76
2021/11/14 03:31:37;;;;;;;7.73;6.33;;;2.90;91.10;;;;;;5048852;28;20336;-77
2021/11/14 03:34:03;;;;;;;9.93;6.73;;;2.80;91.10;;;;;;5048499;28;20386;-76
2021/11/14 03:36:29;;;;;;;13.20;8.40;;;2.80;91.20;;;;;;5046319;28;20183;-77
2021/11/14 03:39:00;;;;;;;13.03;8.30;;;2.80;91.30;;;;;;5046266;28;20179;-76
2021/11/14 03:41:31;;;;;;;11.80;8.40;;;2.70;91.40;;;;;;5047844;28;20172;-76
2021/11/14 03:43:57;;;;;;;13.23;9.17;;;2.60;92.40;;;;;;5048905;28;20570;-76
2021/11/14 03:46:24;;;;;;;17.57;8.70;;;2.50;92.90;;;;;;5047651;28;20932;-76
2021/11/14 03:48:52;;;;;;;13.53;8.47;;;2.40;93.60;;;;;;5048361;28;20178;-77
2021/11/14 03:51:21;;;;;;;13.87;8.60;;;2.30;94.10;;;;;;5048545;28;20180;-76
2021/11/14 03:53:47;;;;;;;9.37;7.63;;;2.20;94.60;;;;;;5045483;28;20218;-76
2021/11/14 03:56:13;;;;;;;13.77;8.60;;;2.20;95.00;;;;;;5047002;28;20334;-77
2021/11/14 03:58:40;;;;;;;9.57;6.17;;;2.10;95.00;;;;;;5048848;28;20259;-77
2021/11/14 04:01:11;;;;;;;10.57;6.43;;;2.20;94.90;;;;;;5046636;28;21000;-77
2021/11/14 04:03:37;;;;;;;11.40;6.53;;;2.20;94.90;;;;;;5047406;28;20187;-77
2021/11/14 04:06:06;;;;;;;11.53;6.03;;;2.30;94.80;;;;;;5048505;28;20191;-77
2021/11/14 04:08:32;;;;;;;8.37;5.73;;;2.40;94.50;;;;;;5046410;28;20229;-77
2021/11/14 04:10:59;;;;;;;12.60;6.17;;;2.40;94.30;;;;;;5048009;28;20274;-77
2021/11/14 04:13:30;;;;;;;13.10;5.50;;;2.50;94.50;;;;;;5045072;28;20989;-77
2021/11/14 04:15:56;;;;;;;10.53;5.93;;;2.60;94.20;;;;;;5047250;28;20184;-77
2021/11/14 04:18:22;;;;;;;11.03;7.20;;;2.60;94.30;;;;;;5050699;28;20179;-77
2021/11/14 04:20:48;;;;;;;8.63;5.00;;;2.60;94.30;;;;;;5046361;28;20668;-77
2021/11/14 04:23:14;;;;;;;6.90;6.17;;;2.70;94.40;;;;;;5045583;28;20219;-77
2021/11/14 04:25:40;;;;;;;10.90;6.93;;;2.70;94.20;;;;;;5046938;28;20191;-77
2021/11/14 04:28:08;;;;;;;17.30;6.27;;;2.60;94.60;;;;;;5044764;28;20179;-77
2021/11/14 04:30:35;;;;;;;15.27;7.73;;;2.60;95.20;;;;;;5046014;28;20188;-77
2021/11/14 04:33:01;;;;;;;19.60;8.70;;;2.60;95.10;;;;;;5048045;28;20219;-77
2021/11/14 04:35:27;;;;;;;13.13;7.43;;;2.50;95.30;;;;;;5047126;28;20202;-77
2021/11/14 04:37:52;;;;;;;11.60;6.37;;;2.40;95.60;;;;;;5047833;28;20183;-77
2021/11/14 04:40:21;;;;;;;10.83;6.17;;;2.40;95.60;;;;;;5046393;28;20578;-77
2021/11/14 04:42:47;;;;;;;9.93;5.60;;;2.40;95.60;;;;;;5047229;28;20579;-77
2021/11/14 04:45:15;;;;;;;11.30;6.57;;;2.30;95.80;;;;;;5043816;28;20207;-77
2021/11/14 04:47:40;;;;;;;7.97;5.53;;;2.20;96.40;;;;;;5046997;28;20686;-77
2021/11/14 04:50:09;;;;;;;13.07;7.77;;;2.30;96.30;;;;;;5047016;28;20183;-77
2021/11/14 04:52:36;;;;;;;10.70;4.83;;;2.30;96.10;;;;;;5045116;28;20180;-77
2021/11/14 04:55:03;;;;;;;8.17;6.27;;;2.30;96.00;;;;;;5048256;28;20257;-77
2021/11/14 04:57:29;;;;;;;10.37;6.07;;;2.30;95.90;;;;;;5047073;28;20237;-78
2021/11/14 04:59:54;;;;;;;18.20;6.83;;;2.30;96.00;;;;;;5046116;28;20207;-77
2021/11/14 05:02:20;;;;;;;12.17;6.63;;;2.30;95.90;;;;;;5044804;28;20246;-78
2021/11/14 05:04:46;;;;;;;16.20;6.93;;;2.20;96.30;;;;;;5044914;28;20184;-78
2021/11/14 05:07:11;;;;;;;9.33;6.33;;;2.10;96.80;;;;;;5044681;28;20191;-77
2021/11/14 05:09:39;;;;;;;9.90;6.00;;;2.20;96.80;;;;;;5045755;28;20187;-78
2021/11/14 05:12:05;;;;;;;9.17;5.00;;;2.10;96.60;;;;;;5043986;28;20191;-77
2021/11/14 05:14:31;;;;;;;9.43;5.87;;;2.10;96.50;;;;;;5045139;28;20600;-77
2021/11/14 05:16:57;;;;;;;8.67;5.13;;;2.00;97.00;;;;;;5042593;28;20179;-78
2021/11/14 05:19:22;;;;;;;8.13;5.57;;;1.90;97.40;;;;;;5047689;28;20697;-77
2021/11/14 05:21:48;;;;;;;5.73;4.57;;;;;;;;;;5046214;28;20183;-78
2021/11/14 05:24:14;;;;;;;9.43;6.10;;;1.90;97.50;;;;;;5046875;28;20187;-78
2021/11/14 05:26:40;;;;;;;12.77;5.90;;;1.90;97.60;;;;;;5046554;28;20190;-78
2021/11/14 05:29:06;;;;;;;12.53;6.80;;;1.80;97.70;;;;;;5046162;28;20190;-77
2021/11/14 05:31:32;;;;;;;13.80;7.40;;;1.80;97.90;;;;;;5042935;28;20976;-77
2021/11/14 05:33:58;;;;;;;12.77;6.07;;;1.80;97.70;;;;;;5047249;28;20207;-78
2021/11/14 05:36:24;;;;;;;17.13;6.17;;;1.80;97.90;;;;;;5046469;28;20916;-77
2021/11/14 05:38:51;;;;;;;7.13;5.67;;;1.90;98.00;;;;;;5045168;28;20183;-76
2021/11/14 05:41:17;;;;;;;7.83;6.97;;;1.90;98.00;;;;;;5044514;28;20175;-76
2021/11/14 05:43:43;;;;;;;6.63;4.57;;;2.00;97.80;;;;;;5045466;28;20307;-78
2021/11/14 05:46:09;;;;;;;13.27;6.90;;;2.10;97.80;;;;;;5040859;28;20944;-78
2021/11/14 05:48:34;;;;;;;7.47;4.30;;;2.20;97.50;;;;;;5046302;28;20194;-78
2021/11/14 05:51:00;;;;;;;11.97;6.17;;;2.20;97.20;;;;;;5044774;28;20573;-78
2021/11/14 05:53:26;;;;;;;12.50;5.60;;;2.30;97.20;;;;;;5045770;28;20340;-78
2021/11/14 05:55:53;;;;;;;13.33;6.23;;;2.30;97.20;;;;;;5044849;28;20199;-77
2021/11/14 05:58:24;;;;;;;8.17;5.10;;;2.40;97.20;;;;;;5047110;28;20198;-76
2021/11/14 06:03:26;;;;;;;11.77;5.60;;;2.40;97.30;;;;;;5043463;28;20187;-78
2021/11/14 06:05:52;;;;;;;14.00;5.53;;;2.40;97.20;;;;;;5043844;28;20665;-77
2021/11/14 06:08:20;;;;;;;13.00;5.87;;;2.40;97.10;;;;;;5045787;28;20746;-77
2021/11/14 06:10:51;;;;;;;16.03;6.20;;;2.50;97.00;;;;;;5042047;28;20179;-78
2021/11/14 06:13:25;;;;;;;10.27;7.07;;;2.50;96.80;;;;;;5045521;28;20215;-78
2021/11/14 06:15:52;;;;;;;9.87;6.83;;;2.60;96.70;;;;;;5046826;28;20183;-77
2021/11/14 06:18:18;;;;;;;11.77;6.07;;;2.60;96.80;;;;;;5043615;28;20274;-77
2021/11/14 06:20:44;;;;;;;11.97;6.70;;;2.50;96.90;;;;;;5046333;28;20188;-76
2021/11/14 06:23:11;;;;;;;14.93;6.90;;;2.50;97.00;;;;;;5044737;28;20728;-76
2021/11/14 06:25:37;;;;;;;14.40;6.57;;;2.50;97.10;;;;;;5045289;28;21047;-76
2021/11/14 06:28:05;;;;;;;14.50;7.50;;;2.50;97.30;;;;;;5044994;28;20267;-76
2021/11/14 06:30:31;;;;;;;10.87;5.50;;;2.50;97.10;;;;;;5044209;28;20187;-77
2021/11/14 06:32:57;;;;;;;10.80;4.80;;;2.60;97.00;;;;;;5042157;28;20226;-77
2021/11/14 06:35:23;;;;;;;11.43;5.27;;;2.60;97.00;;;;;;5045048;28;20195;-77
2021/11/14 06:37:50;;;;;;;8.57;5.43;;;2.70;96.90;;;;;;5043933;28;20190;-77
2021/11/14 06:40:15;;;;;;;10.93;5.43;;;2.80;96.70;;;;;;5042337;28;20749;-77
2021/11/14 06:42:41;;;;;;;9.07;6.03;;;2.90;96.50;;;;;;5044704;28;20195;-76
2021/11/14 06:45:07;;;;;;;12.13;7.00;;;2.90;96.30;;;;;;5045463;28;20184;-77
2021/11/14 06:47:35;;;;;;;9.93;5.70;;;2.90;96.10;;;;;;5044455;28;20198;-77
2021/11/14 06:50:01;;;;;;;14.97;7.67;;;2.90;96.10;;;;;;5042662;28;20687;-77
2021/11/14 06:52:26;;;;;;;12.90;7.53;;;2.90;96.20;;;;;;5042816;28;20192;-77
2021/11/14 06:54:52;;;;;;;9.20;6.50;;;2.80;96.10;;;;;;5044334;28;20186;-77
2021/11/14 06:57:19;;;;;;;11.80;6.23;;;2.70;96.20;;;;;;5046479;28;20207;-76
2021/11/14 06:59:46;;;;;;;10.70;6.23;;;2.70;96.40;;;;;;5048536;28;20183;-77
2021/11/14 07:02:12;;;;;;;15.13;7.73;;;2.60;96.30;;;;;;5048627;28;20183;-78
2021/11/14 07:04:38;;;;;;;12.50;6.90;;;2.60;96.30;;;;;;5049393;28;20188;-78
2021/11/14 07:07:05;;;;;;;13.80;6.03;;;2.60;96.50;;;;;;5047936;28;20180;-77
2021/11/14 07:09:31;;;;;;;12.47;6.23;;;2.60;96.40;;;;;;5047702;28;20262;-78
2021/11/14 07:11:57;;;;;;;7.40;6.43;;;2.60;96.40;;;;;;5047002;28;20192;-77
2021/11/14 07:14:27;;;;;;;6.10;5.47;;;2.70;96.40;;;;;;5046156;28;21053;-74
2021/11/14 07:16:54;;;;;;;15.23;7.17;;;2.80;96.20;;;;;;5045282;28;20267;-77
2021/11/14 07:19:20;;;;;;;12.97;7.57;;;2.90;96.50;;;;;;5046593;28;20182;-77
2021/11/14 07:21:46;;;;;;;21.27;8.73;;;2.90;96.40;;;;;;5046048;28;20651;-75
2021/11/14 07:24:13;;;;;;;13.10;6.77;;;2.90;96.20;;;;;;5047828;28;20221;-77
2021/11/14 07:26:40;;;;;;;12.43;6.90;;;3.00;95.90;;;;;;5047213;28;20607;-76
2021/11/14 07:29:06;;;;;;;13.20;7.27;;;3.00;95.80;;;;;;5046110;28;20176;-76
2021/11/14 07:31:32;;;;;;;13.60;7.20;;;3.10;95.60;;;;;;5046123;28;20274;-76
2021/11/14 07:33:58;;;;;;;10.40;6.10;;;3.10;95.40;;;;;;5046438;28;20220;-76
2021/11/14 07:36:24;;;;;;;9.63;6.20;;;3.30;95.00;;;;;;5045929;28;20183;-76
2021/11/14 07:38:49;;;;;;;9.60;6.40;;;3.30;94.80;;;;;;5045533;28;20183;-76
2021/11/14 07:41:15;;;;;;;9.87;6.00;;;3.40;94.50;;;;;;5046674;28;20267;-76
2021/11/14 07:43:41;;;;;;;10.43;5.67;;;3.50;94.30;;;;;;5046874;28;20704;-77
2021/11/14 07:46:08;;;;;;;10.23;7.10;;;3.60;94.10;;;;;;5046102;28;20615;-76
2021/11/14 07:48:34;;;;;;;13.10;6.33;;;3.70;93.90;;;;;;5045209;28;20191;-77
2021/11/14 07:51:01;;;;;;;8.80;5.63;;;3.80;93.80;;;;;;5046847;28;20197;-75
2021/11/14 07:53:28;;;;;;;13.23;6.50;;;3.90;93.60;;;;;;5045636;28;20622;-76
2021/11/14 07:55:54;;;;;;;17.80;7.83;;;4.00;93.40;;;;;;5045298;28;20265;-76
2021/11/14 07:58:21;;;;;;;13.70;8.33;;;4.10;92.80;;;;;;5044386;28;20183;-77
2021/11/14 08:00:47;;;;;;;12.87;7.47;;;4.10;92.70;;;;;;5046795;28;20271;-77
2021/11/14 08:03:13;;;;;;;12.23;7.27;;;4.20;92.60;;;;;;5046538;28;20187;-77
2021/11/14 08:05:40;;;;;;;10.60;7.00;;;4.20;92.40;;;;;;5046483;28;20183;-78
2021/11/14 08:08:07;;;;;;;10.83;7.03;;;4.30;92.20;;;;;;5047290;28;20175;-78
2021/11/14 08:10:34;;;;;;;10.47;6.90;;;4.30;92.20;;;;;;5047854;28;20180;-78
2021/11/14 08:13:01;;;;;;;12.17;7.07;;;4.40;91.90;;;;;;5046371;28;20215;-77
2021/11/14 08:15:27;;;;;;;10.80;8.00;;;4.40;91.90;;;;;;5045495;28;20219;-79
2021/11/14 08:17:54;;;;;;;12.67;6.87;;;4.60;91.80;;;;;;5047818;28;20175;-79
2021/11/14 08:20:20;;;;;;;13.43;7.40;;;4.60;91.80;;;;;;5046406;28;20180;-78
2021/11/14 08:22:46;;;;;;;12.90;7.50;;;4.70;91.70;;;;;;5047184;28;20249;-77
2021/11/14 08:25:14;;;;;;;12.77;6.47;;;4.80;91.60;;;;;;5046660;28;20188;-79
2021/11/14 08:27:41;;;;;;;11.37;6.03;;;4.90;91.40;;;;;;5043594;28;20180;-79
2021/11/14 08:30:10;;;;;;;12.03;6.67;;;5.00;91.20;;;;;;5044159;28;20184;-78
2021/11/14 08:32:36;;;;;;;11.57;5.63;;;5.10;91.10;;;;;;5045830;28;20194;-83
2021/11/14 08:35:03;;;;;;;9.30;6.07;;;5.20;90.90;;;;;;5044284;28;20183;-82
2021/11/14 08:37:29;;;;;;;9.67;6.30;;;5.30;90.50;;;;;;5046142;28;20190;-80
2021/11/14 08:39:55;;;;;;;9.87;5.90;;;5.30;90.50;;;;;;5047267;28;20175;-81
2021/11/14 08:42:21;;;;;;;11.40;6.20;;;5.30;90.30;;;;;;5043664;28;20195;-78
2021/11/14 08:44:48;;;;;;;10.17;5.47;;;5.50;90.20;;;;;;5045096;28;20234;-81
2021/11/14 08:47:14;;;;;;;10.07;6.60;;;5.70;90.20;;;;;;5045534;28;22061;-79
2021/11/14 08:49:40;;;;;;;12.27;6.63;;;5.80;90.00;;;;;;5046650;28;20218;-79
2021/11/14 08:52:07;;;;;;;10.13;7.03;;;5.90;89.30;;;;;;5045328;28;20207;-78
2021/11/14 08:54:33;;;;;;;9.23;5.87;;;6.00;89.30;;;;;;5046345;28;20755;-78
2021/11/14 08:56:59;;;;;;;12.33;7.03;;;6.20;89.00;;;;;;5045090;28;20179;-77
2021/11/14 08:59:28;;;;;;;13.27;7.20;;;6.30;88.60;;;;;;5044855;28;20278;-76
2021/11/14 09:01:54;;;;;;;16.30;7.27;;;6.30;88.60;;;;;;5044975;28;20190;-78
2021/11/14 09:04:20;;;;;;;14.97;7.07;;;6.40;88.40;;;;;;5044789;28;20742;-77
2021/11/14 09:06:46;;;;;;;12.23;7.63;;;6.50;88.20;;;;;;5045032;28;20274;-77
2021/11/14 09:09:12;;;;;;;10.17;6.30;;;6.60;87.90;;;;;;5044170;28;20184;-78
2021/11/14 09:11:42;;;;;;;17.30;7.57;;;6.80;87.50;;;;;;5041773;28;20262;-77
2021/11/14 09:14:09;;;;;;;13.40;7.47;;;6.90;87.20;;;;;;5042705;28;20204;-77
2021/11/14 09:16:35;;;;;;;10.60;7.13;;;7.20;87.20;;;;;;5042600;28;20207;-77
2021/11/14 09:19:06;;;;;;;13.20;6.80;;;7.50;87.00;;;;;;5044623;28;20266;-78
2021/11/14 09:21:33;;;;;;;11.67;6.93;;;7.90;85.70;;;;;;5041963;28;20188;-78
2021/11/14 09:23:59;;;;;;;13.10;7.07;;;7.90;85.70;;;;;;5043087;28;20187;-78
2021/11/14 09:26:25;;;;;;;15.97;8.73;;;8.10;84.80;;;;;;5044571;28;20186;-77
2021/11/14 09:28:50;;;;;;;18.40;10.63;;;8.40;84.00;;;;;;5040661;28;20180;-76
2021/11/14 09:31:16;;;;;;;19.20;8.87;;;8.60;83.30;;;;;;5042206;28;20179;-76
2021/11/14 09:33:44;;;;;;;16.17;8.00;;;8.90;82.60;;;;;;5041977;28;20311;-77
2021/11/14 09:36:10;;;;;;;16.00;9.00;;;9.30;82.10;;;;;;5042977;28;20191;-78
2021/11/14 09:38:37;;;;;;;15.57;8.07;;;9.90;84.10;;;;;;5042595;28;20659;-78
2021/11/14 09:41:05;;;;;;;21.07;9.10;;;10.90;83.30;;;;;;5045350;28;20280;-76
2021/11/14 09:43:32;;;;;;;20.60;9.93;;;12.00;81.30;;;;;;5044178;28;20195;-77
2021/11/14 09:45:58;;;;;;;16.60;9.67;;;13.10;78.90;;;;;;5044132;28;20199;-78
2021/11/14 09:48:24;;;;;;;17.57;10.70;;;14.20;73.90;;;;;;5042530;28;20175;-77
2021/11/14 09:50:51;;;;;;;21.67;11.02;;;15.00;70.50;;;;;;5044317;28;20203;-78
2021/11/14 09:53:18;;;;;;;29.13;11.90;;;15.50;67.80;;;;;;5044052;28;20218;-78
2021/11/14 09:55:44;;;;;;;25.25;12.65;;;15.80;67.40;;;;;;5044674;28;20211;-78
2021/11/14 09:58:09;;;;;;;19.80;11.85;;;16.10;65.80;;;;;;5044788;28;21122;-78
2021/11/14 10:00:39;;;;;;;26.27;13.75;;;16.50;65.90;;;;;;5044036;28;20661;-77
2021/11/14 10:03:06;;;;;;;27.35;12.95;;;16.90;63.80;;;;;;5045105;28;20253;-77
2021/11/14 10:05:32;;;;;;;22.40;12.73;;;17.50;64.40;;;;;;5043975;28;20594;-78
2021/11/14 10:08:02;;;;;;;20.35;12.65;;;18.10;63.10;;;;;;5044358;28;20178;-79
2021/11/14 10:10:30;;;;;;;21.05;12.65;;;18.80;62.20;;;;;;5044566;28;20947;-79
2021/11/14 10:12:57;;;;;;;25.80;14.02;;;19.40;61.60;;;;;;5043723;28;20211;-79
2021/11/14 10:15:25;;;;;;;20.33;11.57;;;20.10;59.80;;;;;;5042955;28;20370;-79
2021/11/14 10:17:55;;;;;;;26.67;14.85;;;20.60;59.60;;;;;;5044248;28;20198;-79
2021/11/14 10:20:28;;;;;;;25.73;13.95;;;20.90;55.60;;;;;;5046117;28;20263;-79
2021/11/14 10:22:56;;;;;;;22.27;14.20;;;21.00;55.50;;;;;;5041790;28;20326;-76
2021/11/14 10:25:24;;;;;;;28.95;15.35;;;20.90;55.40;;;;;;5043723;28;20199;-77
2021/11/14 10:27:55;;;;;;;24.80;14.85;;;20.60;55.00;;;;;;5041302;28;20250;-78
2021/11/14 10:30:26;;;;;;;23.63;13.93;;;20.40;55.40;;;;;;5046783;28;20191;-78
2021/11/14 10:32:54;;;;;;;25.02;14.02;;;20.30;56.30;;;;;;5046225;28;20306;-78
2021/11/14 10:35:21;;;;;;;24.55;13.95;;;20.50;56.30;;;;;;5048927;28;20222;-78
2021/11/14 10:37:47;;;;;;;24.67;14.68;;;20.60;56.10;;;;;;5046396;28;20175;-78
2021/11/14 10:40:24;;;;;;;22.48;14.38;;;20.80;55.60;;;;;;5048035;28;20209;-78
2021/11/14 10:42:59;;;;;;;22.50;14.27;;;21.00;55.00;;;;;;5045421;28;20207;-78
2021/11/14 10:45:29;;;;;;;23.08;14.27;;;21.20;55.40;;;;;;5045153;28;20179;-78
2021/11/14 10:47:56;;;;;;;22.58;14.13;;;21.20;54.60;;;;;;5045187;28;20657;-79
2021/11/14 10:50:26;;;;;;;23.98;14.60;;;21.40;54.90;;;;;;5047611;28;21065;-79
2021/11/14 10:52:55;;;;;;;24.25;16.45;;;21.70;54.60;;;;;;5045950;28;20204;-78
2021/11/14 10:55:23;;;;;;;22.27;14.93;;;22.10;53.60;;;;;;5046897;28;20190;-77
2021/11/14 10:57:50;;;;;;;28.42;15.65;;;22.50;52.80;;;;;;5045199;28;20403;-78
2021/11/14 11:00:18;;;;;;;27.27;14.88;;;22.80;52.30;;;;;;5043425;28;20183;-78
2021/11/14 11:02:47;;;;;;;26.48;16.15;;;22.90;52.80;;;;;;5046632;28;20760;-78
2021/11/14 11:05:23;;;;;;;25.58;15.27;;;23.20;52.50;;;;;;5044761;28;20184;-78
2021/11/14 11:08:05;;;;;;;23.45;14.43;;;23.10;51.10;;;;;;5047652;28;20187;-77
2021/11/14 11:10:51;;;;;;;22.98;14.18;;;23.10;51.90;;;;;;5048009;28;20187;-77
2021/11/14 11:13:30;;;;;;;23.90;14.52;;;23.40;52.10;;;;;;5046261;28;20219;-78
2021/11/14 11:16:00;;;;;;;25.98;15.05;;;23.80;50.80;;;;;;5046734;28;20262;-77
2021/11/14 11:18:25;;;;;;;24.33;15.40;;;24.00;50.60;;;;;;5044991;28;20180;-78
2021/11/14 11:20:53;;;;;;;24.00;14.57;;;23.80;50.40;;;;;;5042257;28;20657;-79
2021/11/14 11:23:21;;;;;;;23.10;14.98;;;23.60;50.80;;;;;;5045940;28;20215;-79
2021/11/14 11:25:49;;;;;;;22.55;15.23;;;23.40;50.30;;;;;;5048351;28;20215;-79
2021/11/14 11:28:26;;;;;;;22.95;14.52;;;23.30;50.70;;;;;;5048587;28;20210;-79
2021/11/14 11:31:02;;;;;;;23.65;15.30;;;23.30;51.10;;;;;;5048738;28;20168;-79
2021/11/14 11:33:32;;;;;;;25.15;14.50;;;23.40;49.70;;;;;;5048750;28;20666;-79
2021/11/14 11:35:58;;;;;;;25.27;14.10;;;23.50;49.40;;;;;;5046974;28;20196;-79
2021/11/14 11:38:26;;;;;;;22.20;15.63;;;23.50;51.00;;;;;;5045413;28;20554;-79
2021/11/14 11:40:57;;;;;;;26.23;16.02;;;23.70;50.70;;;;;;5046906;28;20850;-79
2021/11/14 11:43:23;;;;;;;24.13;15.25;;;23.80;49.40;;;;;;5046122;28;20724;-79
2021/11/14 11:45:52;;;;;;;27.42;15.57;;;24.00;49.70;;;;;;5046760;28;20810;-79
2021/11/14 11:48:24;;;;;;;25.67;15.48;;;23.80;49.60;;;;;;5047211;28;20179;-80
2021/11/14 11:50:51;;;;;;;26.48;15.68;;;23.50;50.60;;;;;;5047084;28;20919;-79
2021/11/14 11:53:23;;;;;;;25.25;15.57;;;23.50;50.60;;;;;;5045931;28;20257;-79
2021/11/14 11:56:10;;;;;;;21.33;14.75;;;23.60;50.80;;;;;;5045101;28;20214;-79
2021/11/14 11:58:46;;;;;;;21.80;14.73;;;23.90;49.90;;;;;;5046803;28;20711;-79
2021/11/14 12:01:32;;;;;;;23.60;15.85;;;24.10;49.60;;;;;;5047939;28;20210;-79
2021/11/14 12:04:22;;;;;;;25.77;16.35;;;24.20;49.10;;;;;;5046994;28;20565;-79
2021/11/14 12:06:58;;;;;;;27.73;16.27;;;24.30;48.60;;;;;;5048148;28;20191;-79
2021/11/14 12:09:28;;;;;;;22.20;14.60;;;24.40;50.00;;;;;;5047051;28;20184;-79
2021/11/14 12:11:54;;;;;;;24.02;15.82;;;24.50;49.10;;;;;;5046797;28;20262;-79
2021/11/14 12:14:29;;;;;;;26.35;15.95;;;24.40;49.30;;;;;;5046136;28;20847;-79
2021/11/14 12:17:03;;;;;;;23.55;16.15;;;24.40;49.10;;;;;;5048604;28;20676;-80
2021/11/14 12:19:37;;;;;;;24.48;14.75;;;24.20;48.80;;;;;;5047890;28;20684;-80
2021/11/14 12:22:04;;;;;;;26.98;15.25;;;23.90;49.50;;;;;;5047250;28;20218;-79
2021/11/14 12:24:33;;;;;;;25.15;15.68;;;23.70;49.70;;;;;;5047774;28;20180;-79
2021/11/14 12:26:59;;;;;;;24.52;15.05;;;23.60;50.40;;;;;;5048538;28;20183;-80
2021/11/14 12:29:35;;;;;;;29.77;16.50;;;23.50;50.20;;;;;;5046939;28;20176;-80
2021/11/14 12:32:21;;;;;;;25.08;14.70;;;23.50;50.60;;;;;;5049821;28;20183;-80
2021/11/14 12:34:48;;;;;;;26.95;16.30;;;23.60;49.80;;;;;;5045860;28;20216;-80
2021/11/14 12:37:15;;;;;;;32.75;16.05;;;23.40;49.80;;;;;;5046925;28;20179;-80
2021/11/14 12:39:43;;;;;;;27.23;15.75;;;23.20;49.60;;;;;;5044865;28;20184;-80
2021/11/14 12:42:12;;;;;;;30.08;16.52;;;23.10;50.30;;;;;;5045321;28;20267;-80
2021/11/14 12:44:42;;;;;;;29.63;17.20;;;23.10;50.60;;;;;;5043925;28;20186;-79
2021/11/14 12:47:22;;;;;;;30.60;17.00;;;23.00;50.80;;;;;;5045106;28;20179;-80
2021/11/14 12:49:50;;;;;;;28.23;15.45;;;22.90;50.00;;;;;;5044706;28;20194;-80